createdAt,value
2022-11-18T00:01:25.417Z,99009.97
2022-11-18T00:06:25.646Z,99048.13
2022-11-18T00:11:43.690Z,99054.69
2022-11-18T00:16:35.288Z,99048.34
2022-11-18T00:21:26.869Z,99050.44
2022-11-18T00:26:18.445Z,99042.09
2022-11-18T00:31:12.548Z,99049.41
2022-11-18T00:36:05.338Z,99020.16
2022-11-18T00:41:02.058Z,99033.66
2022-11-18T00:45:53.824Z,99018.09
2022-11-18T00:50:45.404Z,99019.41
2022-11-18T00:55:36.995Z,99004.03
2022-11-18T01:00:28.694Z,99048.38
2022-11-18T01:05:20.537Z,99023.41
2022-11-18T01:10:12.210Z,98600.13
2022-11-18T01:15:03.983Z,99017.00
2022-11-18T01:19:55.553Z,99051.59
2022-11-18T01:24:47.179Z,98728.38
2022-11-18T01:29:38.727Z,99033.47
2022-11-18T01:34:30.311Z,99095.69
2022-11-18T01:39:22.232Z,99081.28
2022-11-18T01:44:51.420Z,99111.69
2022-11-18T01:49:43.069Z,99028.56
2022-11-18T01:54:40.985Z,99111.66
2022-11-18T01:59:37.622Z,99071.31
2022-11-18T02:04:29.454Z,99100.22
2022-11-18T02:09:21.938Z,99119.88
2022-11-18T02:14:13.577Z,98948.44
2022-11-18T02:19:31.349Z,99026.44
2022-11-18T02:24:41.868Z,99133.44
2022-11-18T02:29:42.022Z,99011.78
2022-11-18T02:34:33.571Z,99153.97
2022-11-18T02:39:31.844Z,99080.44
2022-11-18T02:44:26.303Z,99137.41
2022-11-18T02:49:23.724Z,99043.31
2022-11-18T02:54:17.146Z,99084.50
2022-11-18T02:59:08.696Z,99082.50
2022-11-18T03:04:00.445Z,99102.50
2022-11-18T03:09:10.237Z,99169.78
2022-11-18T03:14:08.166Z,99175.34
2022-11-18T03:19:16.177Z,99109.41
2022-11-18T03:24:17.636Z,99172.91
2022-11-18T03:29:24.454Z,99184.56
2022-11-18T03:34:28.530Z,99189.88
2022-11-18T03:39:22.576Z,99211.59
2022-11-18T03:44:20.101Z,99178.84
2022-11-18T03:49:19.967Z,99150.50
2022-11-18T03:54:20.744Z,99225.28
2022-11-18T03:59:23.703Z,99073.53
2022-11-18T04:04:15.688Z,99219.47
2022-11-18T04:09:13.613Z,99240.75
2022-11-18T04:14:08.332Z,99140.38
2022-11-18T04:19:05.768Z,99179.88
2022-11-18T04:23:58.056Z,99256.53
2022-11-18T04:28:49.620Z,99205.38
2022-11-18T04:33:41.183Z,99212.56
2022-11-18T04:38:32.792Z,99188.22
2022-11-18T04:43:24.327Z,99276.66
2022-11-18T04:48:16.200Z,99228.16
2022-11-18T04:53:07.749Z,99167.03
2022-11-18T04:57:59.327Z,99298.13
2022-11-18T05:02:51.003Z,99218.97
2022-11-18T05:07:42.964Z,99106.53
2022-11-18T05:12:49.778Z,99252.72
2022-11-18T05:17:41.764Z,99227.66
2022-11-18T05:22:33.456Z,99204.34
2022-11-18T05:27:25.019Z,99168.56
2022-11-18T05:32:16.582Z,99322.41
2022-11-18T05:37:08.367Z,99254.84
2022-11-18T05:42:19.063Z,99317.91
2022-11-18T05:47:11.142Z,99294.16
2022-11-18T05:52:03.058Z,99338.78
2022-11-18T05:56:54.662Z,99337.13
2022-11-18T06:01:51.176Z,99299.31
2022-11-18T06:06:46.071Z,99290.13
2022-11-18T06:11:46.032Z,99194.47
2022-11-18T06:16:41.295Z,99292.28
2022-11-18T06:21:33.723Z,99288.16
2022-11-18T06:26:25.371Z,99380.19
2022-11-18T06:31:17.000Z,99387.41
2022-11-18T06:36:09.315Z,99310.69
2022-11-18T06:41:02.007Z,99404.31
2022-11-18T06:46:12.176Z,99325.81
2022-11-18T06:51:08.009Z,99417.47
2022-11-18T06:56:04.056Z,99425.28
2022-11-18T07:00:55.768Z,99384.78
2022-11-18T07:05:47.457Z,99335.34
2022-11-18T07:10:39.167Z,99261.84
2022-11-18T07:15:31.066Z,99449.38
2022-11-18T07:20:22.680Z,99429.06
2022-11-18T07:25:14.352Z,99369.75
2022-11-18T07:30:06.561Z,99371.03
2022-11-18T07:34:58.163Z,99455.84
2022-11-18T07:39:49.820Z,99491.38
2022-11-18T07:44:41.430Z,99506.09
2022-11-18T07:49:33.038Z,99461.63
2022-11-18T07:54:24.680Z,99505.47
2022-11-18T07:59:16.597Z,99456.56
2022-11-18T08:04:11.132Z,99517.63
2022-11-18T08:09:03.956Z,99511.69
2022-11-18T08:13:55.581Z,99510.59
2022-11-18T08:18:47.598Z,99405.31
2022-11-18T08:23:42.303Z,99485.50
2022-11-18T08:28:35.003Z,99538.88
2022-11-18T08:33:26.852Z,99193.84
2022-11-18T08:38:18.613Z,99532.53
2022-11-18T08:43:11.692Z,99513.44
2022-11-18T08:48:03.401Z,99565.81
2022-11-18T08:52:54.992Z,99430.91
2022-11-18T08:57:47.823Z,99559.53
2022-11-18T09:02:39.686Z,99529.16
2022-11-18T09:07:31.268Z,99568.28
2022-11-18T09:12:22.847Z,99515.19
2022-11-18T09:17:15.216Z,99555.81
2022-11-18T09:22:07.375Z,99491.66
2022-11-18T09:26:59.205Z,99455.47
2022-11-18T09:31:51.182Z,99517.56
2022-11-18T09:36:42.785Z,99593.34
2022-11-18T09:41:49.047Z,99607.09
2022-11-18T09:47:04.839Z,99611.31
2022-11-18T09:51:57.498Z,99520.44
2022-11-18T09:56:51.921Z,99622.16
2022-11-18T10:01:44.130Z,99559.03
2022-11-18T10:06:35.922Z,99638.78
2022-11-18T10:11:42.094Z,99635.03
2022-11-18T10:16:50.910Z,99636.31
2022-11-18T10:22:24.621Z,99565.47
2022-11-18T10:27:17.802Z,99612.66
2022-11-18T10:32:15.505Z,99629.56
2022-11-18T10:37:28.167Z,99651.47
2022-11-18T10:42:46.679Z,99659.41
2022-11-18T10:47:38.216Z,99649.38
2022-11-18T10:52:30.447Z,99591.81
2022-11-18T10:57:24.737Z,99578.72
2022-11-18T11:02:39.600Z,99663.16
2022-11-18T11:07:37.718Z,99664.28
2022-11-18T11:12:33.039Z,99659.69
2022-11-18T11:17:39.866Z,99661.09
2022-11-18T11:22:31.915Z,99606.03
2022-11-18T11:32:56.249Z,99644.69
2022-11-18T11:37:55.520Z,99657.06
2022-11-18T11:43:05.988Z,99660.53
2022-11-18T11:48:03.395Z,99680.41
2022-11-18T11:53:30.409Z,99676.66
2022-11-18T11:58:28.141Z,99672.88
2022-11-18T12:03:25.790Z,99675.88
2022-11-18T12:08:17.344Z,99672.31
2022-11-18T12:13:30.810Z,99674.78
2022-11-18T12:18:42.085Z,99679.13
2022-11-18T12:23:34.551Z,99680.31
2022-11-18T12:28:26.078Z,99673.66
2022-11-18T12:33:18.144Z,99633.78
2022-11-18T12:38:29.389Z,99686.03
2022-11-18T12:43:48.589Z,99684.50
2022-11-18T12:48:41.390Z,99682.03
2022-11-18T12:53:37.769Z,99691.50
2022-11-18T12:58:29.483Z,99669.81
2022-11-18T13:03:28.740Z,99696.25
2022-11-18T13:08:20.365Z,99692.50
2022-11-18T13:13:32.005Z,99592.84
2022-11-18T13:18:23.653Z,99643.75
2022-11-18T13:23:33.896Z,99699.69
2022-11-18T13:28:45.248Z,99658.28
2022-11-18T13:33:39.186Z,99555.97
2022-11-18T13:38:30.806Z,99710.63
2022-11-18T13:43:26.345Z,99715.97
2022-11-18T13:48:18.143Z,99636.59
2022-11-18T13:53:42.953Z,99720.47
2022-11-18T13:59:15.729Z,99717.19
2022-11-18T14:04:25.828Z,99726.50
2022-11-18T14:09:27.271Z,99732.56
2022-11-18T14:14:29.414Z,99691.53
2022-11-18T14:19:32.367Z,99391.59
2022-11-18T14:24:27.771Z,99740.34
2022-11-18T14:29:23.754Z,99739.94
2022-11-18T14:34:26.870Z,99528.66
2022-11-18T14:39:30.254Z,99748.25
2022-11-18T14:44:24.354Z,99619.69
2022-11-18T14:49:19.587Z,99672.59
2022-11-18T14:54:20.809Z,99683.69
2022-11-18T14:59:17.762Z,99665.00
2022-11-18T15:04:09.546Z,99721.13
2022-11-18T15:09:01.313Z,99736.44
2022-11-18T15:13:52.965Z,99667.41
2022-11-18T15:18:47.313Z,99661.66
2022-11-18T15:23:39.224Z,99730.19
2022-11-18T15:28:30.859Z,99697.50
2022-11-18T15:33:22.564Z,99781.13
2022-11-18T15:38:14.214Z,99736.06
2022-11-18T15:43:05.763Z,99722.06
2022-11-18T15:47:57.878Z,99732.84
2022-11-18T15:52:49.539Z,99732.81
2022-11-18T15:57:41.240Z,99795.16
2022-11-18T16:02:33.182Z,99437.06
2022-11-18T16:07:25.166Z,99732.91
2022-11-18T16:12:36.551Z,99807.72
2022-11-18T16:17:28.144Z,99747.41
2022-11-18T16:22:19.768Z,99797.50
2022-11-18T16:27:11.324Z,99738.59
2022-11-18T16:32:12.141Z,99698.31
2022-11-18T16:37:06.348Z,99809.53
2022-11-18T16:42:07.314Z,99811.47
2022-11-18T16:47:00.566Z,99791.06
2022-11-18T16:51:54.846Z,99791.72
2022-11-18T16:56:47.969Z,99752.28
2022-11-18T17:01:39.616Z,99799.81
2022-11-18T17:06:31.833Z,99792.88
2022-11-18T17:11:23.406Z,99829.59
2022-11-18T17:16:17.932Z,99837.59
2022-11-18T17:21:17.360Z,99825.84
2022-11-18T17:26:13.058Z,99853.56
2022-11-18T17:31:06.857Z,99863.69
2022-11-18T17:36:03.725Z,99832.31
2022-11-18T17:40:56.850Z,99865.16
2022-11-18T17:45:53.214Z,99753.31
2022-11-18T17:50:44.793Z,99798.25
2022-11-18T17:55:36.464Z,99873.69
2022-11-18T18:00:29.213Z,99849.03
2022-11-18T18:05:21.015Z,99880.59
2022-11-18T18:10:12.674Z,99827.13
2022-11-18T18:15:05.104Z,99880.59
2022-11-18T18:19:56.701Z,99895.94
2022-11-18T18:24:48.362Z,99880.19
2022-11-18T18:29:39.949Z,99895.56
2022-11-18T18:34:31.562Z,99829.84
2022-11-18T18:39:23.077Z,99844.44
2022-11-18T18:44:18.574Z,99881.22
2022-11-18T18:49:13.414Z,99936.34
2022-11-18T18:54:06.290Z,99927.91
2022-11-18T18:58:58.118Z,99928.59
2022-11-18T19:03:57.633Z,99858.09
2022-11-18T19:08:49.288Z,99818.28
2022-11-18T19:13:41.041Z,99929.16
2022-11-18T19:18:35.845Z,99911.94
2022-11-18T19:23:27.704Z,99913.34
2022-11-18T19:28:19.251Z,99941.16
2022-11-18T19:33:12.835Z,99938.13
2022-11-18T19:38:04.373Z,99793.44
2022-11-18T19:42:55.973Z,99942.03
2022-11-18T19:47:47.488Z,99961.91
2022-11-18T19:52:39.023Z,99936.44
2022-11-18T19:57:31.660Z,99963.25
2022-11-18T20:02:23.306Z,99928.03
2022-11-18T20:07:14.973Z,99947.34
2022-11-18T20:12:06.921Z,99927.66
2022-11-18T20:16:58.578Z,99946.38
2022-11-18T20:21:50.436Z,99968.63
2022-11-18T20:26:42.357Z,99967.50
2022-11-18T20:31:35.416Z,99828.56
2022-11-18T20:36:31.116Z,99853.91
2022-11-18T20:41:23.966Z,99926.75
2022-11-18T20:46:20.677Z,99981.31
2022-11-18T20:51:24.324Z,99968.72
2022-11-18T20:56:18.682Z,99972.69
2022-11-18T21:01:15.910Z,99941.44
2022-11-18T21:06:14.283Z,99979.72
2022-11-18T21:11:08.748Z,99982.91
2022-11-18T21:16:01.508Z,99992.34
2022-11-18T21:21:15.630Z,99905.78
2022-11-18T21:26:13.013Z,99993.22
2022-11-18T21:31:09.500Z,99999.34
2022-11-18T21:36:01.062Z,99990.56
2022-11-18T21:40:52.628Z,99998.22
2022-11-18T21:45:44.192Z,99991.75
2022-11-18T21:50:35.750Z,100008.34
2022-11-18T21:55:27.318Z,99970.88
2022-11-18T22:00:19.061Z,100016.03
2022-11-18T22:05:10.630Z,100013.44
2022-11-18T22:10:02.223Z,99964.56
2022-11-18T22:14:53.726Z,99997.00
2022-11-18T22:19:45.287Z,99856.78
2022-11-18T22:24:36.913Z,99912.53
2022-11-18T22:29:28.529Z,99997.44
2022-11-18T22:34:20.090Z,99955.31
2022-11-18T22:39:11.976Z,99868.44
2022-11-18T22:44:07.612Z,99851.59
2022-11-18T22:49:00.385Z,99938.09
2022-11-18T22:54:09.805Z,100013.13
2022-11-18T22:59:04.277Z,99648.88
2022-11-18T23:03:55.821Z,99951.47
2022-11-18T23:08:47.376Z,100002.09
2022-11-18T23:14:03.800Z,99995.59
2022-11-18T23:18:56.553Z,99972.31
2022-11-18T23:23:48.124Z,100036.34
2022-11-18T23:28:40.363Z,100036.47
2022-11-18T23:33:32.601Z,100039.72
2022-11-18T23:38:24.335Z,100018.88
2022-11-18T23:43:16.179Z,99888.19
2022-11-18T23:48:07.741Z,99950.03
2022-11-18T23:52:59.297Z,100041.75
2022-11-18T23:57:50.850Z,99927.41
